Time;durP1;ratioP1;P1;durP2;ratioP2;P2;SDS_P1;SDS_P2;PMS_P1;PMS_P2;Temp;Humidity;BMP_temperature;BMP_pressure;BME280_temperature;BME280_humidity;BME280_pressure;Samples;Min_cycle;Max_cycle;Signal;HPM_P1;HPM_P2
2022/01/04 05:00:43;;;;;;;4.03;2.38;;;9.30;99.90;;;;;;5922125;22;91029;-72
2022/01/04 05:03:09;;;;;;;2.97;1.80;;;9.40;99.90;;;;;;4999910;28;90204;-72
2022/01/04 05:05:34;;;;;;;2.55;2.20;;;9.30;99.90;;;;;;4999475;28;91807;-75
2022/01/04 05:08:00;;;;;;;3.83;2.60;;;9.30;99.90;;;;;;5000796;28;89260;-74
2022/01/04 05:10:25;;;;;;;4.15;2.15;;;9.30;99.90;;;;;;5000743;28;89590;-71
2022/01/04 05:12:51;;;;;;;3.83;2.47;;;9.30;99.90;;;;;;5000460;28;89246;-72
2022/01/04 05:15:16;;;;;;;4.35;2.40;;;9.30;99.90;;;;;;5001162;28;89307;-74
2022/01/04 05:17:42;;;;;;;4.40;2.30;;;9.30;99.90;;;;;;5000905;28;89727;-72
2022/01/04 05:20:08;;;;;;;3.50;2.13;;;9.30;99.90;;;;;;5001018;28;89560;-72
2022/01/04 05:22:34;;;;;;;4.68;2.22;;;9.40;99.90;;;;;;5000391;28;89156;-72
2022/01/04 05:24:59;;;;;;;2.72;2.38;;;9.40;99.90;;;;;;5000654;28;89149;-72
2022/01/04 05:27:25;;;;;;;3.88;2.13;;;9.40;99.90;;;;;;4999652;28;91125;-72
2022/01/04 05:29:50;;;;;;;4.88;2.20;;;9.40;99.90;;;;;;5000142;28;90559;-72
2022/01/04 05:32:16;;;;;;;3.03;2.15;;;9.40;99.90;;;;;;4998623;28;89707;-72
2022/01/04 05:34:42;;;;;;;2.92;2.05;;;9.40;99.90;;;;;;5000409;28;89429;-72
2022/01/04 05:37:07;;;;;;;2.50;2.10;;;9.40;99.90;;;;;;5000526;28;89902;-73
2022/01/04 05:39:33;;;;;;;3.80;2.10;;;9.40;99.90;;;;;;5000335;28;89228;-72
2022/01/04 05:41:58;;;;;;;3.03;1.90;;;9.40;99.90;;;;;;5000284;28;89186;-72
2022/01/04 05:44:24;;;;;;;5.75;2.15;;;9.40;99.90;;;;;;5000266;28;89516;-72
2022/01/04 05:46:50;;;;;;;4.70;2.10;;;9.40;99.90;;;;;;5000213;28;89824;-72
2022/01/04 05:49:15;;;;;;;3.40;1.90;;;9.40;99.90;;;;;;5000035;28;89870;-72
2022/01/04 05:51:42;;;;;;;3.53;2.00;;;9.30;99.90;;;;;;4999649;28;90200;-72
2022/01/04 05:54:08;;;;;;;2.40;2.20;;;9.40;99.90;;;;;;4999726;28;89482;-72
2022/01/04 05:56:33;;;;;;;2.70;1.73;;;9.40;99.90;;;;;;4999904;28;89962;-72
2022/01/04 05:58:59;;;;;;;3.92;2.05;;;9.40;99.90;;;;;;4999939;28;89504;-72
2022/01/04 06:01:25;;;;;;;3.25;2.15;;;9.40;99.90;;;;;;4999952;28;89517;-74
2022/01/04 06:03:51;;;;;;;5.18;1.92;;;9.40;99.90;;;;;;4997889;28;92481;-73
2022/01/04 06:06:17;;;;;;;3.35;1.85;;;9.50;99.90;;;;;;4999617;28;90038;-72
2022/01/04 06:08:44;;;;;;;3.08;1.70;;;9.40;99.90;;;;;;4999982;28;89644;-73
2022/01/04 06:11:28;;;;;;;6.95;1.75;;;9.40;99.90;;;;;;4999884;28;89772;-73
2022/01/04 06:16:38;;;;;;;3.22;1.77;;;9.50;99.90;;;;;;4999220;28;90601;-72
2022/01/04 06:19:03;;;;;;;2.20;1.58;;;9.50;99.90;;;;;;4999682;28;91087;-73
2022/01/04 06:21:29;;;;;;;4.15;1.83;;;9.50;99.90;;;;;;4997865;28;89361;-73
2022/01/04 06:23:54;;;;;;;1.88;1.48;;;9.60;99.90;;;;;;4999224;28;90120;-73
2022/01/04 06:26:20;;;;;;;2.80;1.70;;;9.50;99.90;;;;;;4999501;28;90313;-73
2022/01/04 06:28:45;;;;;;;2.78;1.80;;;9.60;99.90;;;;;;4996673;28;91290;-73
2022/01/04 06:31:11;;;;;;;2.30;1.50;;;9.60;99.90;;;;;;4998204;28;89365;-73
2022/01/04 06:33:37;;;;;;;2.78;1.60;;;9.60;99.90;;;;;;4997448;28;91237;-73
2022/01/04 06:36:03;;;;;;;3.80;1.90;;;9.60;99.90;;;;;;4999374;28;89287;-73
2022/01/04 06:38:29;;;;;;;2.80;1.70;;;9.60;99.90;;;;;;4998879;28;89239;-73
2022/01/04 06:40:54;;;;;;;3.72;1.60;;;9.60;99.90;;;;;;4999273;28;90141;-73
2022/01/04 06:43:20;;;;;;;4.40;1.83;;;9.60;99.90;;;;;;4999406;28;89628;-74
2022/01/04 06:45:45;;;;;;;3.85;1.70;;;9.60;99.90;;;;;;4999081;28;89859;-75
2022/01/04 06:48:11;;;;;;;5.18;2.08;;;9.60;99.90;;;;;;4999212;28;89478;-77
2022/01/04 06:50:36;;;;;;;4.53;2.05;;;9.60;99.90;;;;;;4999401;28;89547;-73
2022/01/04 06:53:02;;;;;;;4.55;2.45;;;9.60;99.90;;;;;;4998647;28;89881;-74
2022/01/04 06:55:28;;;;;;;3.80;2.40;;;9.70;99.90;;;;;;4999472;28;90643;-74
2022/01/04 06:57:53;;;;;;;4.78;2.40;;;9.60;99.90;;;;;;4999375;28;89240;-74
2022/01/04 07:00:19;;;;;;;7.15;2.67;;;9.60;99.90;;;;;;4998533;28;89421;-74
2022/01/04 07:02:44;;;;;;;4.35;2.20;;;9.70;99.90;;;;;;4998795;28;89885;-74
2022/01/04 07:05:10;;;;;;;4.10;1.92;;;9.70;99.90;;;;;;4998503;28;91244;-73
2022/01/04 07:07:35;;;;;;;3.67;2.15;;;9.70;99.90;;;;;;4998665;28;90026;-74
2022/01/04 07:10:01;;;;;;;3.67;2.03;;;9.70;99.90;;;;;;4999240;28;89394;-74
2022/01/04 07:12:26;;;;;;;3.83;2.00;;;9.70;99.90;;;;;;4998387;28;90162;-73
2022/01/04 07:14:52;;;;;;;3.28;1.90;;;9.70;99.90;;;;;;4998562;28;89936;-74
2022/01/04 07:17:18;;;;;;;5.03;2.30;;;9.80;99.90;;;;;;4998967;28;89809;-74
2022/01/04 07:19:46;;;;;;;5.75;1.75;;;9.70;99.90;;;;;;4998853;28;89170;-74
2022/01/04 07:22:11;;;;;;;3.45;2.08;;;9.80;99.90;;;;;;4998552;28;89224;-74
2022/01/04 07:24:37;;;;;;;4.55;2.00;;;9.80;99.90;;;;;;4998146;28;90102;-74
2022/01/04 07:27:04;;;;;;;3.05;1.70;;;9.80;99.90;;;;;;4998518;28;89153;-74
2022/01/04 07:29:30;;;;;;;3.17;2.30;;;9.80;99.90;;;;;;4998547;28;90270;-74
2022/01/04 07:31:55;;;;;;;2.72;2.00;;;9.90;99.90;;;;;;4996833;28;91483;-74
2022/01/04 07:34:21;;;;;;;4.45;2.13;;;9.80;99.90;;;;;;4998216;28;90676;-74
2022/01/04 07:36:46;;;;;;;3.70;1.83;;;9.80;99.90;;;;;;4998289;28;89714;-75
2022/01/04 07:39:12;;;;;;;2.15;1.83;;;9.90;99.90;;;;;;4999475;28;89313;-74
2022/01/04 07:41:38;;;;;;;3.78;2.17;;;9.90;99.90;;;;;;4998928;28;89885;-74
2022/01/04 07:44:04;;;;;;;4.22;1.90;;;9.90;99.90;;;;;;5000625;28;89935;-76
2022/01/04 07:46:30;;;;;;;4.25;1.70;;;10.00;99.90;;;;;;4998678;28;92395;-73
2022/01/04 07:48:55;;;;;;;3.72;2.05;;;10.00;99.90;;;;;;4998250;28;89220;-73
2022/01/04 07:51:21;;;;;;;3.72;2.10;;;10.00;99.90;;;;;;4999012;28;89384;-73
2022/01/04 07:53:47;;;;;;;3.53;1.90;;;10.00;99.90;;;;;;4999167;28;90912;-74
2022/01/04 07:56:12;;;;;;;2.85;1.90;;;10.00;99.90;;;;;;5001131;28;89477;-74
2022/01/04 07:58:38;;;;;;;3.30;1.83;;;10.00;99.90;;;;;;4999717;28;89520;-75
2022/01/04 08:01:03;;;;;;;3.47;1.80;;;10.10;99.90;;;;;;4997844;28;89753;-74
2022/01/04 08:03:29;;;;;;;3.05;1.70;;;10.10;99.90;;;;;;4996731;28;91127;-75
2022/01/04 08:05:55;;;;;;;3.63;2.00;;;10.10;99.90;;;;;;4998660;28;89293;-75
2022/01/04 08:08:21;;;;;;;3.45;2.10;;;10.10;99.90;;;;;;4998938;28;89303;-75
2022/01/04 08:10:48;;;;;;;3.47;1.77;;;10.10;99.90;;;;;;4998652;28;89684;-75
2022/01/04 08:13:14;;;;;;;3.92;1.60;;;10.10;99.90;;;;;;4997613;28;90300;-76
2022/01/04 08:15:39;;;;;;;2.90;1.90;;;10.10;99.90;;;;;;4997840;28;89168;-76
2022/01/04 08:18:05;;;;;;;5.35;2.15;;;10.10;99.90;;;;;;4997686;28;90117;-72
2022/01/04 08:20:30;;;;;;;3.78;2.05;;;10.10;99.90;;;;;;4997271;28;90255;-73
2022/01/04 08:22:57;;;;;;;4.97;2.40;;;10.10;99.90;;;;;;4995942;28;92972;-73
2022/01/04 08:25:22;;;;;;;4.32;2.42;;;10.10;99.90;;;;;;4997685;28;89304;-73
2022/01/04 08:27:49;;;;;;;3.63;2.28;;;10.10;99.90;;;;;;4997781;28;89281;-73
2022/01/04 08:30:15;;;;;;;4.22;2.53;;;10.20;99.90;;;;;;4996030;28;92605;-73
2022/01/04 08:32:41;;;;;;;6.97;2.92;;;10.10;99.90;;;;;;4997258;28;89285;-73
2022/01/04 08:35:08;;;;;;;4.25;2.30;;;10.20;99.90;;;;;;4997989;28;88913;-73
2022/01/04 08:37:33;;;;;;;4.80;2.70;;;10.10;99.90;;;;;;4997048;28;89202;-73
2022/01/04 08:39:59;;;;;;;5.50;2.75;;;10.20;99.90;;;;;;4997639;28;89262;-73
2022/01/04 08:42:25;;;;;;;3.75;2.28;;;10.20;99.90;;;;;;4997024;28;91150;-73
2022/01/04 08:44:54;;;;;;;3.58;2.00;;;10.20;99.90;;;;;;4997381;28;91014;-73
2022/01/04 08:47:20;;;;;;;7.20;2.63;;;10.20;99.90;;;;;;4997792;28;89284;-73
2022/01/04 08:49:45;;;;;;;2.95;2.25;;;10.20;99.90;;;;;;4995714;28;90839;-73
2022/01/04 08:52:11;;;;;;;5.47;2.58;;;10.20;99.90;;;;;;4997036;28;90070;-73
2022/01/04 08:54:36;;;;;;;4.32;2.60;;;10.20;99.90;;;;;;4997606;28;89269;-73
2022/01/04 08:57:03;;;;;;;2.80;2.10;;;10.30;99.90;;;;;;4998358;28;89253;-79
2022/01/04 08:59:29;;;;;;;3.53;2.22;;;10.30;99.90;;;;;;4997753;28;90371;-78
2022/01/04 09:01:55;;;;;;;2.60;1.88;;;10.30;99.90;;;;;;5012818;28;90085;-78
2022/01/04 09:04:21;;;;;;;3.00;2.25;;;10.20;99.90;;;;;;5015337;28;93090;-77
2022/01/04 09:06:51;;;;;;;4.10;2.22;;;10.20;99.90;;;;;;5017261;28;90227;-79
2022/01/04 09:09:20;;;;;;;3.88;2.05;;;10.20;99.90;;;;;;5016181;28;92258;-79
2022/01/04 09:11:46;;;;;;;3.67;2.15;;;10.30;99.90;;;;;;5016033;28;91553;-78
2022/01/04 09:14:23;;;;;;;3.30;2.10;;;10.30;99.90;;;;;;5017117;28;89233;-79
2022/01/04 09:19:33;;;;;;;3.03;2.10;;;10.30;99.90;;;;;;5003238;28;89666;-79
2022/01/04 09:21:59;;;;;;;3.58;1.90;;;10.30;99.90;;;;;;4988374;28;89453;-79
2022/01/04 09:24:25;;;;;;;4.25;2.10;;;10.40;99.90;;;;;;5004114;28;88940;-79
2022/01/04 09:26:52;;;;;;;3.60;2.05;;;10.30;99.90;;;;;;4994991;28;89330;-78
2022/01/04 09:29:21;;;;;;;2.28;1.80;;;10.40;99.90;;;;;;4986678;28;89655;-79
2022/01/04 09:31:48;;;;;;;4.03;1.83;;;10.40;99.90;;;;;;4996521;28;90393;-78
2022/01/04 09:34:14;;;;;;;2.17;1.70;;;10.50;99.90;;;;;;5011067;28;89450;-76
2022/01/04 09:36:40;;;;;;;3.42;2.08;;;10.50;99.90;;;;;;5011458;28;89347;-78
2022/01/04 09:39:21;;;;;;;3.03;1.70;;;10.60;99.90;;;;;;4985198;28;91393;-79
2022/01/04 09:41:47;;;;;;;5.93;2.60;;;10.60;99.90;;;;;;4987824;28;89344;-78
2022/01/04 09:44:13;;;;;;;3.55;2.53;;;10.60;99.90;;;;;;4995464;28;89968;-78
2022/01/04 09:46:40;;;;;;;3.95;2.20;;;10.60;99.90;;;;;;5017709;28;89297;-78
2022/01/04 09:49:06;;;;;;;4.05;2.40;;;10.60;99.90;;;;;;5020267;28;88823;-78
2022/01/04 09:51:32;;;;;;;4.20;2.25;;;10.60;99.90;;;;;;4994444;28;89942;-78
2022/01/04 09:53:58;;;;;;;4.60;2.28;;;10.60;99.90;;;;;;5004838;28;89323;-80
2022/01/04 09:56:24;;;;;;;5.28;2.42;;;10.60;99.90;;;;;;5023866;28;90177;-80
2022/01/04 09:58:51;;;;;;;3.70;2.15;;;10.60;99.90;;;;;;5023123;28;90271;-81
2022/01/04 10:01:24;;;;;;;4.03;2.85;;;10.60;99.90;;;;;;5023990;28;90035;-79
2022/01/04 10:03:51;;;;;;;4.15;2.42;;;10.60;99.90;;;;;;5022918;28;89154;-79
2022/01/04 10:06:17;;;;;;;5.50;3.35;;;10.60;99.90;;;;;;5018029;28;89320;-79
2022/01/04 10:09:06;;;;;;;4.18;2.97;;;10.60;99.90;;;;;;5009980;28;89809;-79
2022/01/04 10:11:39;;;;;;;3.67;2.10;;;10.60;99.90;;;;;;5002649;28;90289;-79
2022/01/04 10:14:24;;;;;;;6.20;2.63;;;10.60;99.90;;;;;;5001010;28;89806;-79
2022/01/04 10:16:55;;;;;;;4.10;2.88;;;10.60;99.90;;;;;;5003268;28;89233;-79
2022/01/04 10:19:36;;;;;;;5.40;2.42;;;10.70;99.90;;;;;;5002607;28;89319;-79
2022/01/04 10:22:17;;;;;;;4.47;2.45;;;10.70;99.90;;;;;;4999161;28;92671;-79
2022/01/04 10:24:47;;;;;;;3.80;1.75;;;10.70;99.90;;;;;;5002696;28;89714;-79
2022/01/04 10:27:24;;;;;;;2.95;1.70;;;10.80;99.90;;;;;;5000541;28;89325;-79
2022/01/04 10:30:07;;;;;;;4.70;1.63;;;10.90;99.90;;;;;;5000253;28;92703;-79
2022/01/04 10:33:02;;;;;;;2.25;1.67;;;11.00;99.90;;;;;;5002217;28;90084;-79
2022/01/04 10:35:32;;;;;;;6.90;2.83;;;11.00;99.90;;;;;;5000134;28;91674;-78
2022/01/04 10:38:00;;;;;;;3.97;2.08;;;11.00;99.90;;;;;;5001055;28;89569;-79
2022/01/04 10:40:27;;;;;;;2.90;2.15;;;11.10;99.90;;;;;;5002830;28;90261;-79
2022/01/04 10:42:54;;;;;;;4.88;2.03;;;11.10;99.90;;;;;;5000036;28;91839;-80
2022/01/04 10:45:33;;;;;;;2.60;1.90;;;11.10;99.90;;;;;;5001859;28;89202;-80
2022/01/04 10:48:19;;;;;;;3.83;1.83;;;11.10;99.90;;;;;;5000711;28;90613;-80
2022/01/04 10:50:59;;;;;;;3.03;1.75;;;11.20;99.90;;;;;;5001651;28;89372;-79
2022/01/04 10:53:38;;;;;;;2.38;1.80;;;11.20;99.90;;;;;;5001616;28;90406;-80
2022/01/04 10:56:07;;;;;;;3.00;1.80;;;11.20;99.90;;;;;;5000901;28;92836;-80
2022/01/04 10:58:39;;;;;;;4.00;2.20;;;11.20;99.90;;;;;;4999670;28;89418;-81
2022/01/04 11:01:06;;;;;;;3.78;1.92;;;11.20;99.90;;;;;;5001424;28;89256;-79
2022/01/04 11:03:34;;;;;;;2.47;1.80;;;11.20;99.90;;;;;;5000521;28;92708;-79
2022/01/04 11:06:15;;;;;;;4.75;2.20;;;11.20;99.90;;;;;;5002895;28;88999;-79
2022/01/04 11:08:43;;;;;;;3.00;2.17;;;11.20;99.90;;;;;;5003696;28;89289;-79
2022/01/04 11:11:09;;;;;;;5.10;2.10;;;11.20;99.90;;;;;;5000854;28;90313;-77
2022/01/04 11:13:35;;;;;;;3.20;2.00;;;11.20;99.90;;;;;;4998114;28;93826;-79
2022/01/04 11:16:02;;;;;;;10.00;3.13;;;11.30;99.90;;;;;;5002499;28;90730;-79
2022/01/04 11:18:29;;;;;;;3.08;2.13;;;11.30;99.90;;;;;;5003622;28;89078;-80
2022/01/04 11:20:55;;;;;;;2.72;2.10;;;11.30;99.90;;;;;;5002399;28;89742;-79
2022/01/04 11:23:28;;;;;;;3.63;1.90;;;11.30;99.90;;;;;;5003223;28;89322;-78
2022/01/04 11:25:54;;;;;;;3.47;2.25;;;11.30;99.90;;;;;;5003057;28;89589;-78
2022/01/04 11:28:21;;;;;;;5.18;2.28;;;11.40;99.90;;;;;;5001737;28;89363;-79
2022/01/04 11:31:01;;;;;;;3.88;2.30;;;11.30;99.90;;;;;;5004301;28;88986;-80
2022/01/04 11:33:43;;;;;;;3.20;2.13;;;11.40;99.90;;;;;;5003103;28;89361;-78
2022/01/04 11:36:11;;;;;;;2.70;2.05;;;11.40;99.90;;;;;;5001174;28;91537;-77
2022/01/04 11:38:38;;;;;;;3.22;2.10;;;11.40;99.90;;;;;;4996810;28;90377;-75
2022/01/04 11:41:04;;;;;;;4.30;2.03;;;11.40;99.90;;;;;;4998645;28;89183;-75
2022/01/04 11:43:38;;;;;;;4.15;2.15;;;11.40;99.90;;;;;;4998743;28;90404;-75
2022/01/04 11:46:05;;;;;;;3.55;2.33;;;11.50;99.90;;;;;;4998825;28;89506;-75
2022/01/04 11:48:33;;;;;;;3.75;2.22;;;11.50;99.90;;;;;;4998499;28;89595;-75
2022/01/04 11:51:02;;;;;;;3.55;2.17;;;11.50;99.90;;;;;;4998013;28;89594;-75
2022/01/04 11:53:28;;;;;;;3.17;2.30;;;11.50;99.90;;;;;;4996332;28;92039;-75
2022/01/04 11:56:03;;;;;;;4.32;2.28;;;11.50;99.90;;;;;;5011440;28;89917;-74
2022/01/04 11:58:52;;;;;;;4.30;2.20;;;11.50;99.90;;;;;;5018028;28;89302;-74
2022/01/04 12:01:27;;;;;;;3.50;2.08;;;11.50;99.90;;;;;;4989396;28;89475;-75
2022/01/04 12:03:53;;;;;;;3.20;2.03;;;11.40;99.90;;;;;;5015961;28;90891;-74
2022/01/04 12:06:33;;;;;;;5.65;2.47;;;11.40;99.90;;;;;;5017848;28;90334;-74
2022/01/04 12:08:59;;;;;;;2.85;2.25;;;11.40;99.90;;;;;;5016939;28;89499;-74
2022/01/04 12:11:24;;;;;;;4.40;2.60;;;11.40;99.90;;;;;;5014938;28;91377;-74
2022/01/04 12:13:58;;;;;;;5.07;2.28;;;11.40;99.90;;;;;;5017504;28;91331;-74
2022/01/04 12:16:45;;;;;;;3.90;2.35;;;11.40;99.90;;;;;;5017876;28;89498;-74
2022/01/04 12:19:14;;;;;;;3.67;2.45;;;11.40;99.90;;;;;;5018345;28;89238;-75
2022/01/04 12:22:00;;;;;;;3.67;2.65;;;11.50;99.90;;;;;;5018315;28;89757;-74
2022/01/04 12:24:42;;;;;;;5.28;2.80;;;11.40;99.90;;;;;;5017812;28;90421;-75
2022/01/04 12:27:10;;;;;;;3.72;2.40;;;11.40;99.90;;;;;;5018276;28;89659;-74
2022/01/04 12:29:36;;;;;;;5.20;2.72;;;11.40;99.90;;;;;;5017811;28;90159;-74
2022/01/04 12:32:04;;;;;;;5.55;2.97;;;11.40;99.90;;;;;;5016328;28;93116;-74
2022/01/04 12:34:29;;;;;;;4.43;2.67;;;11.40;99.90;;;;;;5017654;28;89356;-75
2022/01/04 12:36:55;;;;;;;5.53;2.85;;;11.40;99.90;;;;;;5017907;28;89406;-75
2022/01/04 12:39:29;;;;;;;3.72;2.60;;;11.40;99.90;;;;;;5018127;28;89238;-75
2022/01/04 12:41:55;;;;;;;4.10;2.75;;;11.40;99.90;;;;;;5012514;28;89379;-76
2022/01/04 12:44:26;;;;;;;5.97;3.17;;;11.40;99.90;;;;;;4989463;28;89934;-75
2022/01/04 12:46:52;;;;;;;6.18;2.85;;;11.30;99.90;;;;;;4998025;28;89656;-81
2022/01/04 12:49:23;;;;;;;4.63;3.00;;;11.30;99.90;;;;;;4998328;28;89170;-75
2022/01/04 12:51:54;;;;;;;4.93;3.10;;;11.30;99.90;;;;;;4997488;28;89202;-75
2022/01/04 12:54:25;;;;;;;2.67;1.60;;;11.30;99.90;;;;;;4998375;28;90905;-75
2022/01/04 12:56:53;;;;;;;2.78;1.45;;;10.90;99.90;;;;;;4997944;28;89974;-75
2022/01/04 12:59:25;;;;;;;2.42;1.20;;;10.40;99.90;;;;;;4997490;28;89411;-75
2022/01/04 13:02:02;;;;;;;1.45;1.10;;;9.90;99.90;;;;;;4993942;28;89446;-73
2022/01/04 13:04:33;;;;;;;1.58;1.00;;;9.60;99.90;;;;;;4983431;28;90159;-75
2022/01/04 13:07:12;;;;;;;3.00;1.13;;;9.30;99.90;;;;;;4986051;28;89834;-75
2022/01/04 13:09:38;;;;;;;3.00;1.27;;;9.20;99.90;;;;;;4986870;28;89134;-75
2022/01/04 13:12:03;;;;;;;4.88;1.70;;;9.10;99.90;;;;;;4986519;28;89818;-75
2022/01/04 13:14:37;;;;;;;3.50;1.70;;;9.00;99.90;;;;;;4987449;28;89641;-73
2022/01/04 13:17:11;;;;;;;2.20;1.40;;;9.00;99.90;;;;;;4978606;28;91405;-74
2022/01/04 13:19:46;;;;;;;2.17;1.08;;;9.00;99.90;;;;;;4977326;28;90181;-74
2022/01/04 13:22:16;;;;;;;2.10;1.42;;;9.00;99.90;;;;;;4977190;28;89174;-75
2022/01/04 13:24:45;;;;;;;2.17;1.20;;;8.90;99.90;;;;;;4980666;28;89299;-74
2022/01/04 13:27:35;;;;;;;2.35;1.58;;;8.80;99.90;;;;;;4979729;28;89664;-75
2022/01/04 13:30:20;;;;;;;7.90;4.20;;;8.70;99.90;;;;;;4979265;28;89417;-75
2022/01/04 13:32:52;;;;;;;11.05;5.55;;;8.70;99.90;;;;;;4979005;28;91400;-75
2022/01/04 13:35:32;;;;;;;5.43;2.67;;;8.70;99.90;;;;;;4980246;28;90374;-75
2022/01/04 13:37:59;;;;;;;5.88;3.00;;;8.70;99.90;;;;;;4981064;28;89978;-75
2022/01/04 13:40:27;;;;;;;6.03;2.88;;;8.60;99.90;;;;;;4982222;28;89761;-75
2022/01/04 13:43:05;;;;;;;16.42;8.05;;;8.60;99.90;;;;;;4988612;28;92824;-75
2022/01/04 13:45:54;;;;;;;11.40;5.65;;;8.50;99.90;;;;;;4989455;28;94455;-74
2022/01/04 13:48:23;;;;;;;9.18;5.03;;;8.50;99.90;;;;;;4984621;28;92358;-75
2022/01/04 13:50:49;;;;;;;4.90;3.08;;;8.40;99.90;;;;;;4980232;28;89257;-74
2022/01/04 13:53:17;;;;;;;2.03;1.30;;;8.40;99.90;;;;;;4979955;28;91183;-75
2022/01/04 13:55:59;;;;;;;3.90;1.58;;;8.30;99.90;;;;;;4980443;28;89403;-74
2022/01/04 13:58:37;;;;;;;1.70;0.90;;;8.30;99.90;;;;;;4980555;28;89254;-75
2022/01/04 14:01:11;;;;;;;1.90;1.00;;;8.20;99.90;;;;;;4979960;28;89238;-75
2022/01/04 14:03:37;;;;;;;1.63;0.82;;;8.10;99.90;;;;;;4985479;28;88957;-76
2022/01/04 14:06:02;;;;;;;2.80;1.10;;;8.10;99.90;;;;;;4987133;28;91585;-75
2022/01/04 14:08:50;;;;;;;3.08;1.00;;;8.00;99.90;;;;;;4989646;28;90108;-75
2022/01/04 14:11:26;;;;;;;1.48;0.77;;;7.90;99.90;;;;;;4990235;28;90258;-75
2022/01/04 14:13:52;;;;;;;3.92;1.02;;;7.90;99.90;;;;;;4990328;28;89234;-76
2022/01/04 14:16:20;;;;;;;2.00;0.75;;;7.90;99.90;;;;;;4989120;28;91557;-76
2022/01/04 14:19:07;;;;;;;1.98;0.80;;;7.80;99.90;;;;;;4989084;28;89707;-75
2022/01/04 14:21:38;;;;;;;1.05;0.80;;;7.80;99.90;;;;;;4990082;28;89388;-75
2022/01/04 14:24:36;;;;;;;1.42;0.85;;;7.70;99.90;;;;;;4988482;28;89687;-75
2022/01/04 14:27:22;;;;;;;2.05;0.90;;;7.60;99.90;;;;;;4987868;28;90011;-75
2022/01/04 14:30:03;;;;;;;1.00;0.80;;;7.60;99.90;;;;;;4979788;28;88987;-75
2022/01/04 14:32:31;;;;;;;0.88;0.80;;;7.50;99.90;;;;;;4978611;28;89247;-74
2022/01/04 14:35:06;;;;;;;2.30;1.00;;;7.50;99.90;;;;;;4977678;28;92034;-75
2022/01/04 14:37:33;;;;;;;1.33;1.10;;;7.40;99.90;;;;;;4978956;28;90320;-75
2022/01/04 14:39:59;;;;;;;1.60;0.85;;;7.40;99.90;;;;;;4979475;28;90449;-76
2022/01/04 14:42:26;;;;;;;1.42;0.90;;;7.40;99.90;;;;;;4979889;28;89590;-74
2022/01/04 14:44:52;;;;;;;1.25;0.90;;;7.40;99.90;;;;;;4978646;28;91419;-75
2022/01/04 14:47:18;;;;;;;2.47;0.90;;;7.30;99.90;;;;;;4979985;28;89185;-74
2022/01/04 14:49:44;;;;;;;1.10;0.88;;;7.30;99.90;;;;;;4980206;28;89778;-75
2022/01/04 14:52:10;;;;;;;1.55;1.02;;;7.20;99.90;;;;;;4979188;28;89279;-75
2022/01/04 14:54:36;;;;;;;1.52;1.10;;;7.10;99.90;;;;;;4978662;28;92884;-75
2022/01/04 14:57:02;;;;;;;1.10;1.00;;;7.10;99.90;;;;;;4978365;28;91596;-76
2022/01/04 14:59:27;;;;;;;1.90;0.80;;;6.90;99.90;;;;;;4979906;28;89725;-75
2022/01/04 15:01:53;;;;;;;1.77;1.00;;;6.90;99.90;;;;;;4984506;28;90440;-76
2022/01/04 15:04:18;;;;;;;2.53;0.85;;;6.80;99.90;;;;;;4997828;28;90173;-75
2022/01/04 15:06:44;;;;;;;4.85;1.50;;;6.80;99.90;;;;;;4999263;28;89807;-76
2022/01/04 15:09:14;;;;;;;1.95;1.10;;;6.80;99.90;;;;;;4999336;28;89378;-74
2022/01/04 15:11:43;;;;;;;1.10;0.80;;;6.70;99.90;;;;;;4999976;28;90914;-75
2022/01/04 15:14:09;;;;;;;1.30;1.20;;;6.70;99.90;;;;;;4999147;28;89875;-75
2022/01/04 15:16:35;;;;;;;1.85;1.13;;;6.60;99.90;;;;;;4998694;28;89948;-75
2022/01/04 15:19:01;;;;;;;1.92;1.50;;;6.60;99.90;;;;;;4999180;28;88961;-75
2022/01/04 15:21:27;;;;;;;2.75;1.10;;;6.60;99.90;;;;;;4999110;28;89319;-75
2022/01/04 15:23:53;;;;;;;2.15;0.88;;;6.50;99.90;;;;;;4998371;28;89276;-75
2022/01/04 15:26:19;;;;;;;1.75;0.75;;;6.50;99.90;;;;;;4997696;28;90147;-75
2022/01/04 15:28:45;;;;;;;1.38;0.75;;;6.40;99.90;;;;;;4998681;28;90482;-75
2022/01/04 15:31:12;;;;;;;1.42;0.65;;;6.40;99.90;;;;;;4998674;28;89284;-75
2022/01/04 15:33:38;;;;;;;1.80;1.00;;;6.30;99.90;;;;;;4998263;28;89241;-75
2022/01/04 15:36:06;;;;;;;1.67;0.90;;;6.20;99.90;;;;;;4997022;28;92945;-76
2022/01/04 15:38:32;;;;;;;1.17;0.75;;;6.20;99.90;;;;;;4998754;28;89234;-75
2022/01/04 15:40:59;;;;;;;2.83;0.73;;;6.10;99.90;;;;;;4996919;28;89299;-75
2022/01/04 15:43:26;;;;;;;2.72;0.98;;;5.90;99.90;;;;;;4997047;28;91494;-76
2022/01/04 15:45:51;;;;;;;1.20;0.80;;;5.90;99.90;;;;;;4996462;28;92577;-76
2022/01/04 15:48:17;;;;;;;2.33;1.20;;;5.80;99.90;;;;;;4998597;28;89888;-75
2022/01/04 15:50:46;;;;;;;2.33;1.35;;;5.80;99.90;;;;;;4997818;28;90276;-76
2022/01/04 15:53:12;;;;;;;2.15;1.20;;;5.80;99.90;;;;;;4996507;28;92489;-75
2022/01/04 15:55:38;;;;;;;2.92;1.20;;;5.80;99.90;;;;;;4998236;28;90255;-76
2022/01/04 15:58:04;;;;;;;1.77;1.20;;;5.80;99.90;;;;;;4998164;28;90770;-75
2022/01/04 16:00:35;;;;;;;3.83;1.60;;;5.80;99.90;;;;;;4997872;28;89297;-75
2022/01/04 16:03:01;;;;;;;5.53;1.75;;;5.80;99.90;;;;;;4997439;28;91504;-74
2022/01/04 16:05:27;;;;;;;3.67;1.77;;;5.90;99.90;;;;;;4998108;28;89445;-74
2022/01/04 16:07:53;;;;;;;5.55;1.80;;;5.80;99.90;;;;;;4999809;28;89899;-76
2022/01/04 16:10:20;;;;;;;3.78;1.83;;;5.90;99.90;;;;;;4998301;28;89189;-74
2022/01/04 16:12:46;;;;;;;3.22;2.17;;;5.90;99.90;;;;;;4997786;28;89877;-74
2022/01/04 16:15:20;;;;;;;3.78;1.75;;;5.90;99.90;;;;;;4996263;28;92925;-76
2022/01/04 16:23:02;;;;;;;3.05;1.40;;;6.00;99.90;;;;;;4993973;28;89361;-75
2022/01/04 16:25:28;;;;;;;1.70;1.25;;;5.90;99.90;;;;;;5001011;28;90104;-76
2022/01/04 16:27:54;;;;;;;2.92;1.30;;;5.80;99.90;;;;;;4991408;28;89589;-76
2022/01/04 16:30:20;;;;;;;2.45;1.50;;;5.80;99.90;;;;;;4990203;28;89678;-75
2022/01/04 16:32:46;;;;;;;3.70;1.88;;;5.80;99.90;;;;;;4998113;28;88931;-76
2022/01/04 16:35:14;;;;;;;5.95;1.88;;;5.80;99.90;;;;;;5001105;28;90065;-75
2022/01/04 16:37:40;;;;;;;3.45;1.45;;;5.80;99.90;;;;;;5018516;28;89180;-76
2022/01/04 16:40:10;;;;;;;3.85;1.75;;;5.80;99.90;;;;;;5018190;28;90225;-76
2022/01/04 16:42:40;;;;;;;2.67;1.67;;;5.80;99.90;;;;;;5019310;28;89665;-76
2022/01/04 16:45:08;;;;;;;2.67;1.52;;;5.70;99.90;;;;;;5019087;28;89996;-77
2022/01/04 16:47:34;;;;;;;5.10;3.00;;;5.70;99.90;;;;;;5018790;28;89723;-74
2022/01/04 16:50:01;;;;;;;4.57;3.47;;;5.80;99.90;;;;;;4999930;28;90009;-74
2022/01/04 16:52:26;;;;;;;4.13;2.30;;;5.80;99.90;;;;;;4999660;28;89708;-75
2022/01/04 16:54:52;;;;;;;4.95;2.50;;;5.80;99.90;;;;;;5012352;28;91699;-74
2022/01/04 16:57:20;;;;;;;5.28;2.47;;;5.80;99.90;;;;;;5022869;28;89286;-75
2022/01/04 16:59:46;;;;;;;4.70;2.55;;;5.80;99.90;;;;;;5023007;28;89187;-76
2022/01/04 17:02:14;;;;;;;5.53;2.38;;;5.80;99.90;;;;;;5021537;28;93163;-76
2022/01/04 17:04:40;;;;;;;4.65;3.30;;;5.80;99.90;;;;;;5021822;28;92626;-75
2022/01/04 17:07:06;;;;;;;2.90;2.10;;;5.80;99.90;;;;;;5023602;28;90650;-75
2022/01/04 17:09:39;;;;;;;3.13;2.13;;;5.80;99.90;;;;;;5023987;28;89439;-75
2022/01/04 17:17:18;;;;;;;6.20;3.90;;;5.70;99.90;;;;;;5022846;28;89306;-77
2022/01/04 17:19:44;;;;;;;6.63;3.85;;;5.70;99.90;;;;;;5022422;28;89301;-77
2022/01/04 17:22:10;;;;;;;6.63;4.28;;;5.80;99.90;;;;;;5021434;28;90889;-77
2022/01/04 17:24:36;;;;;;;6.00;4.60;;;5.80;99.90;;;;;;5021258;28;89874;-76
2022/01/04 17:27:03;;;;;;;8.23;5.38;;;5.80;99.90;;;;;;5018912;28;92834;-76
2022/01/04 17:29:29;;;;;;;12.05;5.57;;;5.80;99.90;;;;;;5007992;28;90164;-76
2022/01/04 17:31:55;;;;;;;11.20;6.50;;;5.80;99.90;;;;;;5002706;28;89609;-77
2022/01/04 17:34:28;;;;;;;12.68;6.57;;;5.80;99.90;;;;;;5019540;28;92429;-77
2022/01/04 17:36:55;;;;;;;12.98;6.90;;;5.80;99.90;;;;;;5021143;28;89761;-77
2022/01/04 17:39:24;;;;;;;12.15;7.32;;;5.80;99.90;;;;;;5021440;28;89320;-78
2022/01/04 17:41:50;;;;;;;9.30;6.65;;;5.80;99.90;;;;;;5020817;28;89231;-76
2022/01/04 17:44:17;;;;;;;12.88;6.72;;;5.80;99.90;;;;;;5022834;28;90181;-77
2022/01/04 17:46:43;;;;;;;10.50;6.93;;;5.80;99.90;;;;;;5021539;28;89085;-76
2022/01/04 17:49:24;;;;;;;10.98;6.50;;;5.70;99.90;;;;;;5024753;28;89255;-77
2022/01/04 17:51:50;;;;;;;9.90;5.95;;;5.70;99.90;;;;;;5019639;28;91139;-76
2022/01/04 17:54:15;;;;;;;9.52;5.53;;;5.70;99.90;;;;;;5022940;28;90879;-76
2022/01/04 17:56:42;;;;;;;10.48;5.85;;;5.60;99.90;;;;;;5020835;28;90101;-77
2022/01/04 17:59:07;;;;;;;12.27;5.75;;;5.60;99.90;;;;;;5020454;28;89154;-76
2022/01/04 18:01:33;;;;;;;8.57;5.70;;;5.60;99.90;;;;;;5014473;28;89885;-77
2022/01/04 18:03:59;;;;;;;9.82;5.32;;;5.60;99.90;;;;;;5020586;28;89239;-75
2022/01/04 18:06:24;;;;;;;10.65;6.03;;;5.60;99.90;;;;;;5019661;28;89253;-76
2022/01/04 18:08:50;;;;;;;8.05;5.18;;;5.60;99.90;;;;;;5020544;28;89454;-77
2022/01/04 18:11:17;;;;;;;9.80;5.45;;;5.60;99.90;;;;;;5020503;28;89252;-77
2022/01/04 18:13:45;;;;;;;9.35;4.70;;;5.50;99.90;;;;;;5020589;28;89397;-77
2022/01/04 18:16:11;;;;;;;6.57;4.50;;;5.50;99.90;;;;;;5020203;28;89384;-78